Time;durP1;ratioP1;P1;durP2;ratioP2;P2;SDS_P1;SDS_P2;PMS_P1;PMS_P2;Temp;Humidity;BMP_temperature;BMP_pressure;BME280_temperature;BME280_humidity;BME280_pressure;Samples;Min_cycle;Max_cycle;Signal;HPM_P1;HPM_P2
2021/12/04 00:00:22;;;;;;;23.83;18.45;;;5.30;93.70;;;;;;5007509;28;20044;-72
2021/12/04 00:02:51;;;;;;;22.70;18.40;;;5.30;93.80;;;;;;5007804;28;20081;-72
2021/12/04 00:05:19;;;;;;;24.08;18.42;;;5.30;93.70;;;;;;5008390;28;20033;-72
2021/12/04 00:07:45;;;;;;;24.25;18.48;;;5.30;93.70;;;;;;5005641;28;20069;-72
2021/12/04 00:10:16;;;;;;;22.88;18.27;;;5.40;93.60;;;;;;5010234;28;20061;-72
2021/12/04 00:12:42;;;;;;;23.90;19.73;;;5.40;93.60;;;;;;5010162;28;20053;-75
2021/12/04 00:15:08;;;;;;;24.42;18.83;;;5.30;93.60;;;;;;5009606;28;20052;-72
2021/12/04 00:17:35;;;;;;;25.45;20.13;;;5.30;93.70;;;;;;5009786;28;20042;-72
2021/12/04 00:20:02;;;;;;;22.25;18.85;;;5.30;93.70;;;;;;5008639;28;20022;-71
2021/12/04 00:22:27;;;;;;;23.27;18.17;;;5.30;93.70;;;;;;5008608;28;20038;-71
2021/12/04 00:24:53;;;;;;;21.70;17.40;;;5.30;93.70;;;;;;5009046;28;20504;-74
2021/12/04 00:27:18;;;;;;;21.75;17.45;;;5.40;93.70;;;;;;5008017;28;20030;-72
2021/12/04 00:29:44;;;;;;;21.65;16.70;;;5.30;93.70;;;;;;5006134;28;20029;-75
2021/12/04 00:32:13;;;;;;;22.17;16.90;;;5.30;93.70;;;;;;5005022;28;20128;-73
2021/12/04 00:34:46;;;;;;;21.40;16.48;;;5.30;93.70;;;;;;5003821;28;20030;-73
2021/12/04 00:37:32;;;;;;;21.67;16.33;;;5.30;93.70;;;;;;5006613;28;20038;-71
2021/12/04 00:50:55;;;;;;;19.55;15.10;;;5.40;93.50;;;;;;5005335;28;20276;-72
2021/12/04 00:53:21;;;;;;;19.35;15.02;;;5.50;93.50;;;;;;5000533;28;20083;-72
2021/12/04 00:55:46;;;;;;;18.48;15.20;;;5.50;93.50;;;;;;5008694;28;20045;-74
2021/12/04 00:58:12;;;;;;;20.02;15.55;;;5.50;93.60;;;;;;5008649;28;20053;-72
2021/12/04 01:00:40;;;;;;;17.40;14.45;;;5.60;93.60;;;;;;5009045;28;20030;-72
2021/12/04 01:03:08;;;;;;;18.17;14.98;;;5.60;93.50;;;;;;5002754;28;20382;-72
2021/12/04 01:05:34;;;;;;;17.88;14.50;;;5.60;93.40;;;;;;5000348;28;20057;-72
2021/12/04 01:08:00;;;;;;;15.98;14.00;;;5.60;93.40;;;;;;5009840;28;20072;-74
2021/12/04 01:10:25;;;;;;;18.50;15.23;;;5.60;93.40;;;;;;5008387;28;20117;-72
2021/12/04 01:12:51;;;;;;;18.05;14.85;;;5.60;93.40;;;;;;5006852;28;20073;-71
2021/12/04 01:15:17;;;;;;;18.30;14.57;;;5.60;93.40;;;;;;5006797;28;20018;-72
2021/12/04 01:17:43;;;;;;;17.42;14.52;;;5.60;93.30;;;;;;5009290;28;20472;-71
2021/12/04 01:20:11;;;;;;;18.20;15.50;;;5.60;93.30;;;;;;5002128;28;20030;-71
2021/12/04 01:22:39;;;;;;;18.40;15.80;;;5.60;93.30;;;;;;5008697;28;20038;-72
2021/12/04 01:25:05;;;;;;;19.25;16.00;;;5.60;93.30;;;;;;5002366;28;20117;-72
2021/12/04 01:27:30;;;;;;;18.58;16.45;;;5.60;93.10;;;;;;5008006;28;20488;-74
2021/12/04 01:29:56;;;;;;;18.05;16.15;;;5.70;93.20;;;;;;5005460;28;20108;-71
2021/12/04 01:32:22;;;;;;;19.60;15.98;;;5.60;93.10;;;;;;4996145;28;20117;-71
2021/12/04 01:34:47;;;;;;;18.13;15.82;;;5.60;93.20;;;;;;5007603;28;20030;-71
2021/12/04 01:37:13;;;;;;;16.65;14.60;;;5.60;93.20;;;;;;5006671;28;20061;-71
2021/12/04 01:39:39;;;;;;;17.55;14.80;;;5.60;93.10;;;;;;5009312;28;20109;-73
2021/12/04 01:42:05;;;;;;;18.73;15.93;;;5.70;93.10;;;;;;5009195;28;20072;-72
2021/12/04 01:44:31;;;;;;;17.77;14.38;;;5.70;93.10;;;;;;5008686;28;20037;-71
2021/12/04 01:46:57;;;;;;;17.00;14.73;;;5.70;93.10;;;;;;5005379;28;20112;-71
2021/12/04 01:49:23;;;;;;;17.35;15.50;;;5.70;93.10;;;;;;4998311;28;20038;-71
2021/12/04 01:51:49;;;;;;;18.08;15.32;;;5.70;93.10;;;;;;5007973;28;20486;-71
2021/12/04 01:54:15;;;;;;;19.17;15.95;;;5.70;93.00;;;;;;5008516;28;20022;-71
2021/12/04 01:56:41;;;;;;;17.45;14.50;;;5.70;93.00;;;;;;4997676;28;20353;-72
2021/12/04 01:59:08;;;;;;;17.15;14.68;;;5.70;93.10;;;;;;5003799;28;20038;-72
2021/12/04 02:01:34;;;;;;;17.92;14.90;;;5.70;93.00;;;;;;5005648;28;20037;-71
2021/12/04 02:04:00;;;;;;;17.77;14.60;;;5.70;93.00;;;;;;5008985;28;20075;-72
2021/12/04 02:06:25;;;;;;;17.30;15.00;;;5.70;93.00;;;;;;5006999;28;20026;-72
2021/12/04 02:08:51;;;;;;;16.38;13.98;;;5.70;93.00;;;;;;4999662;28;20037;-72
2021/12/04 02:11:17;;;;;;;16.48;14.68;;;5.70;92.90;;;;;;5006281;28;20413;-71
2021/12/04 02:13:43;;;;;;;15.32;13.68;;;5.70;92.90;;;;;;5008302;28;20042;-72
2021/12/04 02:16:20;;;;;;;15.02;13.02;;;5.70;93.00;;;;;;5003156;28;20034;-71
2021/12/04 02:18:46;;;;;;;16.25;14.15;;;5.70;93.00;;;;;;5006131;28;20109;-71
2021/12/04 02:21:12;;;;;;;14.98;13.18;;;5.70;93.00;;;;;;5004330;28;20457;-73
2021/12/04 02:23:38;;;;;;;15.43;13.00;;;5.70;93.00;;;;;;5026361;28;20128;-71
2021/12/04 02:26:04;;;;;;;15.38;12.80;;;5.70;93.00;;;;;;5010950;28;20109;-71
2021/12/04 02:28:30;;;;;;;16.77;13.65;;;5.70;93.00;;;;;;5010746;28;20099;-71
2021/12/04 02:30:56;;;;;;;14.95;12.57;;;5.70;93.00;;;;;;5002638;28;20467;-71
2021/12/04 02:33:22;;;;;;;14.88;12.45;;;5.80;93.00;;;;;;5023031;28;20045;-71
2021/12/04 02:35:51;;;;;;;15.05;12.15;;;5.80;93.00;;;;;;5011871;28;20029;-72
2021/12/04 02:38:19;;;;;;;14.27;12.25;;;5.80;92.90;;;;;;5025305;28;20029;-71
2021/12/04 02:40:46;;;;;;;14.43;12.30;;;5.80;92.90;;;;;;5024308;28;20026;-73
2021/12/04 02:43:12;;;;;;;14.40;12.48;;;5.70;92.90;;;;;;5025646;28;20491;-72
2021/12/04 02:45:38;;;;;;;14.85;12.15;;;5.70;92.90;;;;;;5031386;28;20469;-74
2021/12/04 02:48:04;;;;;;;16.08;12.25;;;5.70;92.90;;;;;;5027663;28;20032;-71
2021/12/04 02:50:33;;;;;;;14.55;12.18;;;5.70;92.90;;;;;;5028220;28;20485;-73
2021/12/04 02:52:58;;;;;;;13.95;11.63;;;5.80;92.90;;;;;;5027148;28;20370;-71
2021/12/04 02:55:24;;;;;;;15.32;12.95;;;5.80;92.90;;;;;;5030878;28;20039;-72
2021/12/04 02:57:50;;;;;;;16.27;12.77;;;5.80;92.90;;;;;;5030866;28;20044;-71
2021/12/04 03:00:20;;;;;;;15.20;12.40;;;5.70;92.90;;;;;;5028818;28;20393;-72
2021/12/04 03:02:46;;;;;;;13.88;11.02;;;5.70;93.00;;;;;;5041341;28;20389;-72
2021/12/04 03:05:12;;;;;;;13.27;10.95;;;5.70;92.90;;;;;;5031098;28;20037;-72
2021/12/04 03:07:39;;;;;;;14.88;11.85;;;5.70;92.90;;;;;;5031523;28;20030;-73
2021/12/04 03:10:07;;;;;;;17.48;13.18;;;5.70;92.90;;;;;;5031118;28;20473;-72
2021/12/04 03:12:34;;;;;;;15.65;12.23;;;5.70;92.90;;;;;;5030742;28;20048;-72
2021/12/04 03:15:00;;;;;;;16.35;12.32;;;5.70;92.90;;;;;;5026698;28;20513;-75
2021/12/04 03:17:26;;;;;;;16.08;13.30;;;5.70;92.90;;;;;;5032862;28;20497;-72
2021/12/04 03:19:53;;;;;;;16.63;13.00;;;5.70;92.90;;;;;;5028510;28;20191;-72
2021/12/04 03:22:22;;;;;;;16.38;12.60;;;5.70;92.90;;;;;;5026392;28;20061;-73
2021/12/04 03:24:48;;;;;;;17.85;13.13;;;5.60;93.00;;;;;;5025428;28;20041;-72
2021/12/04 03:27:16;;;;;;;16.15;11.48;;;5.60;93.00;;;;;;5010284;28;20018;-71
2021/12/04 03:29:47;;;;;;;19.85;12.95;;;5.60;93.10;;;;;;5010399;28;20042;-72
2021/12/04 03:42:56;;;;;;;17.35;12.73;;;5.40;93.20;;;;;;5030106;28;20121;-71
2021/12/04 03:45:21;;;;;;;17.90;12.43;;;5.30;93.20;;;;;;5028968;28;20452;-72
2021/12/04 03:47:50;;;;;;;18.75;12.90;;;5.30;93.20;;;;;;5029450;28;20042;-74
2021/12/04 03:50:16;;;;;;;19.48;13.32;;;5.20;93.20;;;;;;5029404;28;20041;-71
2021/12/04 03:52:43;;;;;;;16.92;13.02;;;5.20;93.20;;;;;;5030726;28;20599;-72
2021/12/04 03:55:09;;;;;;;18.08;12.93;;;5.10;93.40;;;;;;5029214;28;20083;-74
2021/12/04 03:57:36;;;;;;;17.10;12.77;;;5.20;93.50;;;;;;5028919;28;20381;-72
2021/12/04 04:00:04;;;;;;;18.65;13.63;;;5.20;93.50;;;;;;5028471;28;20495;-72
2021/12/04 04:02:29;;;;;;;18.02;13.48;;;5.20;93.50;;;;;;5030894;28;20030;-71
2021/12/04 04:04:55;;;;;;;17.83;12.93;;;5.30;93.50;;;;;;5030118;28;20556;-71
2021/12/04 04:07:21;;;;;;;16.88;12.68;;;5.20;93.40;;;;;;5030350;28;20037;-71
2021/12/04 04:09:47;;;;;;;17.52;12.90;;;5.30;93.40;;;;;;5020735;28;20068;-75
2021/12/04 04:12:13;;;;;;;17.63;13.15;;;5.30;93.40;;;;;;5028408;28;20049;-72
2021/12/04 04:14:39;;;;;;;16.70;12.13;;;5.30;93.50;;;;;;5028474;28;20043;-72
2021/12/04 04:17:05;;;;;;;19.08;13.18;;;5.40;93.50;;;;;;5029545;28;20044;-72
2021/12/04 04:19:31;;;;;;;15.77;12.60;;;5.40;93.40;;;;;;5027954;28;20548;-75
2021/12/04 04:21:58;;;;;;;19.85;15.75;;;5.40;93.40;;;;;;5027853;28;20065;-71
2021/12/04 04:24:26;;;;;;;18.10;12.85;;;5.40;93.40;;;;;;5026940;28;20025;-71
2021/12/04 04:26:52;;;;;;;16.92;12.60;;;5.40;93.40;;;;;;5028981;28;20037;-72
2021/12/04 04:29:18;;;;;;;17.85;13.07;;;5.40;93.40;;;;;;5027244;28;20029;-72
2021/12/04 04:31:48;;;;;;;17.60;12.55;;;5.40;93.40;;;;;;5027780;28;20439;-71
2021/12/04 04:34:22;;;;;;;17.35;12.80;;;5.50;93.40;;;;;;5027355;28;20477;-73
2021/12/04 04:37:39;;;;;;;19.55;12.43;;;5.50;93.40;;;;;;5019239;28;20034;-72
2021/12/04 04:59:02;;;;;;;19.52;13.77;;;5.60;93.30;;;;;;5029702;28;20116;-72
2021/12/04 05:12:29;;;;;;;18.98;13.55;;;5.60;93.30;;;;;;5029731;28;20171;-73
2021/12/04 05:14:57;;;;;;;17.55;12.68;;;5.60;93.30;;;;;;5025433;28;20469;-73
2021/12/04 05:17:42;;;;;;;18.10;14.20;;;5.70;93.30;;;;;;5028441;28;20038;-73
2021/12/04 05:20:10;;;;;;;18.23;12.87;;;5.60;93.20;;;;;;5028252;28;20129;-73
2021/12/04 05:22:36;;;;;;;16.48;12.65;;;5.60;93.20;;;;;;5028878;28;20041;-72
2021/12/04 05:25:02;;;;;;;18.45;13.27;;;5.60;93.20;;;;;;5027570;28;20451;-73
2021/12/04 05:27:28;;;;;;;18.52;14.13;;;5.60;93.30;;;;;;5027881;28;20167;-73
2021/12/04 05:29:53;;;;;;;17.80;13.52;;;5.70;93.30;;;;;;5027569;28;20525;-72
2021/12/04 05:32:19;;;;;;;17.33;12.90;;;5.70;93.30;;;;;;5028189;28;20049;-71
2021/12/04 05:34:45;;;;;;;19.85;14.07;;;5.70;93.30;;;;;;5028306;28;20034;-71
2021/12/04 05:37:11;;;;;;;18.10;13.38;;;5.70;93.30;;;;;;5024224;28;20030;-72
2021/12/04 05:39:36;;;;;;;18.27;13.20;;;5.70;93.30;;;;;;5028842;28;20376;-73
2021/12/04 05:42:02;;;;;;;17.70;13.07;;;5.70;93.30;;;;;;5029293;28;20494;-72
2021/12/04 05:44:30;;;;;;;20.00;13.82;;;5.70;93.20;;;;;;5008925;28;20032;-72
2021/12/04 05:50:09;;;;;;;21.00;15.13;;;5.70;93.20;;;;;;4987797;28;20042;-71
2021/12/04 05:53:01;;;;;;;21.33;14.55;;;5.70;93.10;;;;;;5027421;28;20076;-71
2021/12/04 05:55:27;;;;;;;20.40;14.27;;;5.70;93.10;;;;;;5028708;28;20478;-72
2021/12/04 05:57:53;;;;;;;21.92;15.30;;;5.70;93.20;;;;;;5026917;28;21262;-72
2021/12/04 06:00:24;;;;;;;19.67;14.80;;;5.70;93.10;;;;;;5008447;28;20033;-71
2021/12/04 06:02:51;;;;;;;19.98;14.10;;;5.70;93.10;;;;;;5022445;28;20041;-71
2021/12/04 06:05:19;;;;;;;19.80;14.60;;;5.70;93.10;;;;;;5023517;28;20034;-72
2021/12/04 06:07:45;;;;;;;23.20;16.40;;;5.70;93.10;;;;;;5025503;28;20030;-72
2021/12/04 06:10:12;;;;;;;24.98;16.38;;;5.70;93.10;;;;;;5026679;28;20083;-73
2021/12/04 06:12:37;;;;;;;21.33;15.80;;;5.80;93.10;;;;;;5027610;28;20057;-73
2021/12/04 06:15:04;;;;;;;21.65;16.10;;;5.70;93.00;;;;;;5027619;28;21387;-73
2021/12/04 06:17:31;;;;;;;21.50;15.27;;;5.80;93.10;;;;;;5028201;28;20041;-74
2021/12/04 06:22:42;;;;;;;23.38;16.02;;;5.80;93.10;;;;;;5020782;28;20091;-73
2021/12/04 06:25:19;;;;;;;22.17;16.58;;;5.80;93.10;;;;;;5027403;28;20025;-71
2021/12/04 06:27:46;;;;;;;27.42;17.48;;;5.80;93.10;;;;;;5015944;28;20046;-71
2021/12/04 06:30:15;;;;;;;28.40;18.17;;;5.80;93.10;;;;;;5026111;28;20103;-72
2021/12/04 06:32:41;;;;;;;28.75;18.75;;;5.80;93.10;;;;;;5022523;28;20053;-73
2021/12/04 06:35:10;;;;;;;27.45;17.83;;;5.80;93.10;;;;;;5030137;28;20390;-72
2021/12/04 06:37:36;;;;;;;29.88;18.33;;;5.80;93.10;;;;;;5025858;28;20037;-73
2021/12/04 06:40:04;;;;;;;30.63;19.63;;;5.80;93.10;;;;;;5031870;28;20041;-73
2021/12/04 06:42:30;;;;;;;32.30;21.00;;;5.80;93.10;;;;;;5030975;28;20053;-72
2021/12/04 06:44:59;;;;;;;35.45;21.70;;;5.80;93.20;;;;;;5026569;28;20021;-72
2021/12/04 06:47:25;;;;;;;32.80;20.40;;;5.80;93.10;;;;;;5026462;28;20161;-72
2021/12/04 06:49:55;;;;;;;34.50;21.48;;;5.80;93.10;;;;;;5027175;28;20283;-72
2021/12/04 06:52:25;;;;;;;36.92;21.52;;;5.80;93.10;;;;;;5027587;28;20041;-72
2021/12/04 06:55:01;;;;;;;34.92;20.30;;;5.80;93.10;;;;;;5025193;28;20033;-72
2021/12/04 06:57:29;;;;;;;35.65;20.60;;;5.70;93.20;;;;;;5027817;28;20033;-73
2021/12/04 06:59:56;;;;;;;34.88;20.40;;;5.70;93.20;;;;;;5024771;28;20382;-72
2021/12/04 07:02:22;;;;;;;35.55;21.02;;;5.80;93.20;;;;;;5025665;28;20037;-76
2021/12/04 07:04:47;;;;;;;39.22;22.13;;;5.80;93.10;;;;;;5025379;28;20481;-76
2021/12/04 07:07:14;;;;;;;35.00;19.80;;;5.80;93.10;;;;;;5027461;28;20055;-74
2021/12/04 07:09:40;;;;;;;37.05;21.08;;;5.80;93.10;;;;;;5025643;28;20152;-73
2021/12/04 07:12:07;;;;;;;35.65;19.95;;;5.70;93.20;;;;;;5026930;28;20045;-72
2021/12/04 07:14:33;;;;;;;36.20;20.50;;;5.80;93.30;;;;;;5025686;28;20091;-72
2021/12/04 07:17:02;;;;;;;36.20;19.67;;;5.80;93.30;;;;;;5025024;28;20492;-71
2021/12/04 07:19:27;;;;;;;38.35;21.10;;;5.80;93.30;;;;;;5026972;28;20064;-71
2021/12/04 07:21:53;;;;;;;35.80;20.40;;;5.70;93.30;;;;;;5026923;28;20374;-72
2021/12/04 07:24:19;;;;;;;44.72;23.33;;;5.80;93.40;;;;;;5025612;28;20026;-72
2021/12/04 07:26:45;;;;;;;40.60;22.10;;;5.70;93.30;;;;;;5024454;28;20048;-72
2021/12/04 07:29:10;;;;;;;42.42;22.20;;;5.70;93.40;;;;;;5026504;28;20026;-71
2021/12/04 07:31:39;;;;;;;40.55;22.42;;;5.70;93.40;;;;;;5023947;28;20045;-72
2021/12/04 07:34:06;;;;;;;44.10;22.95;;;5.70;93.50;;;;;;5040770;28;20036;-76
2021/12/04 07:36:32;;;;;;;38.97;22.00;;;5.70;93.50;;;;;;5028587;28;20037;-71
2021/12/04 07:39:01;;;;;;;40.88;21.45;;;5.70;93.50;;;;;;5028605;28;20029;-71
2021/12/04 07:41:27;;;;;;;42.08;24.67;;;5.70;93.60;;;;;;5029714;28;20547;-72
2021/12/04 07:43:54;;;;;;;47.25;23.75;;;5.70;93.60;;;;;;5028057;28;20357;-73
2021/12/04 07:46:20;;;;;;;43.47;24.02;;;5.70;93.70;;;;;;5029203;28;20032;-71
2021/12/04 07:48:46;;;;;;;42.35;23.27;;;5.60;93.60;;;;;;5027364;28;20042;-71
2021/12/04 07:51:14;;;;;;;44.45;24.52;;;5.70;93.70;;;;;;5028877;28;20044;-72
2021/12/04 07:53:40;;;;;;;47.97;24.70;;;5.70;93.70;;;;;;5027964;28;20140;-71
2021/12/04 07:56:07;;;;;;;46.47;23.60;;;5.70;93.70;;;;;;5028928;28;20120;-71
2021/12/04 07:58:33;;;;;;;44.03;23.38;;;5.70;93.70;;;;;;5024988;28;20034;-71
2021/12/04 08:00:58;;;;;;;45.50;23.52;;;5.70;93.70;;;;;;5007690;28;20497;-72
2021/12/04 08:03:24;;;;;;;46.30;23.42;;;5.70;93.70;;;;;;5025355;28;20038;-72
2021/12/04 08:05:51;;;;;;;44.70;23.70;;;5.70;93.70;;;;;;5026727;28;20030;-70
2021/12/04 08:08:17;;;;;;;48.38;23.52;;;5.80;93.70;;;;;;5028071;28;20033;-69
2021/12/04 08:10:42;;;;;;;44.50;22.75;;;5.70;93.60;;;;;;5027437;28;20057;-69
2021/12/04 08:13:08;;;;;;;47.03;22.80;;;5.80;93.60;;;;;;5029193;28;20111;-69
2021/12/04 08:15:36;;;;;;;51.65;23.95;;;5.80;93.60;;;;;;5028016;28;20095;-68
2021/12/04 08:18:03;;;;;;;47.05;23.35;;;5.80;93.60;;;;;;5027520;28;20041;-69
2021/12/04 08:20:29;;;;;;;45.83;22.70;;;5.90;93.60;;;;;;5029131;28;20025;-68
2021/12/04 08:22:55;;;;;;;49.83;24.58;;;5.80;93.50;;;;;;5027480;28;20033;-72
2021/12/04 08:25:22;;;;;;;52.45;24.98;;;5.80;93.60;;;;;;5028631;28;20464;-68
2021/12/04 08:27:49;;;;;;;49.25;25.25;;;5.90;93.50;;;;;;5029059;28;20505;-68
2021/12/04 08:30:18;;;;;;;47.05;23.40;;;5.90;93.50;;;;;;5028071;28;20452;-69
2021/12/04 08:32:44;;;;;;;46.45;22.23;;;5.90;93.50;;;;;;5024863;28;20057;-68
2021/12/04 08:35:17;;;;;;;50.30;23.48;;;5.90;93.50;;;;;;5028869;28;20045;-68
2021/12/04 08:37:43;;;;;;;54.60;25.00;;;6.00;93.50;;;;;;5027422;28;20071;-68
2021/12/04 08:40:15;;;;;;;48.20;24.85;;;5.90;93.40;;;;;;5029174;28;20048;-68
2021/12/04 08:42:42;;;;;;;50.75;25.10;;;5.90;93.40;;;;;;5028755;28;20410;-68
2021/12/04 08:45:09;;;;;;;54.70;25.73;;;6.00;93.50;;;;;;5026799;28;20029;-68
2021/12/04 08:47:37;;;;;;;51.78;24.88;;;5.90;93.40;;;;;;5029095;28;20400;-68
2021/12/04 08:50:05;;;;;;;53.25;25.17;;;5.90;93.50;;;;;;5024782;28;20120;-72
2021/12/04 08:52:30;;;;;;;52.80;24.20;;;5.90;93.50;;;;;;5026980;28;20059;-69
2021/12/04 08:54:56;;;;;;;60.25;29.20;;;5.90;93.60;;;;;;5027084;28;20025;-69
2021/12/04 08:57:21;;;;;;;52.90;26.80;;;5.90;93.50;;;;;;5028514;28;20128;-68
2021/12/04 08:59:47;;;;;;;57.65;26.88;;;5.90;93.60;;;;;;5013431;28;20030;-69
2021/12/04 09:02:16;;;;;;;65.75;27.27;;;6.00;93.60;;;;;;5010115;28;20399;-69
2021/12/04 09:04:44;;;;;;;52.83;26.40;;;5.90;93.50;;;;;;5017562;28;20089;-69
2021/12/04 09:07:10;;;;;;;62.35;27.95;;;5.90;93.60;;;;;;5006705;28;20121;-68
2021/12/04 09:09:36;;;;;;;63.10;30.77;;;6.00;93.60;;;;;;5018197;28;20129;-68
2021/12/04 09:12:06;;;;;;;64.63;26.05;;;6.00;93.70;;;;;;5028067;28;20453;-70
2021/12/04 09:14:35;;;;;;;57.60;25.20;;;6.00;93.60;;;;;;5028350;28;20085;-69
2021/12/04 09:17:04;;;;;;;59.75;27.73;;;6.00;93.60;;;;;;5027274;28;20793;-69
2021/12/04 09:19:31;;;;;;;55.42;25.83;;;6.00;93.70;;;;;;5027236;28;20396;-69
2021/12/04 09:21:57;;;;;;;66.95;30.23;;;6.00;93.60;;;;;;5026757;28;20408;-71
2021/12/04 09:24:26;;;;;;;56.92;27.42;;;6.10;93.60;;;;;;5028218;28;20113;-69
2021/12/04 09:29:41;;;;;;;51.00;25.08;;;6.10;93.50;;;;;;5026087;28;20025;-69
2021/12/04 09:32:35;;;;;;;41.53;21.20;;;6.10;93.50;;;;;;5028260;28;20107;-69
2021/12/04 09:59:25;;;;;;;31.33;17.20;;;6.10;93.60;;;;;;5016574;28;20040;-72
2021/12/04 10:13:52;;;;;;;26.65;13.77;;;6.00;93.80;;;;;;5020453;28;20051;-71
2021/12/04 10:19:57;;;;;;;;;;;6.00;93.80;;;;;;5022281;28;20522;-69
2021/12/04 10:33:19;;;;;;;17.67;10.30;;;6.10;93.70;;;;;;5008549;28;20064;-72
2021/12/04 10:35:47;;;;;;;16.02;10.95;;;6.10;93.70;;;;;;5019165;28;20038;-69
2021/12/04 10:38:28;;;;;;;18.10;10.70;;;6.10;93.70;;;;;;5018727;28;20176;-69
2021/12/04 10:40:54;;;;;;;16.55;10.23;;;6.10;93.70;;;;;;5034970;28;20482;-70
2021/12/04 10:43:23;;;;;;;16.25;10.02;;;6.10;93.60;;;;;;5015306;28;20034;-70
2021/12/04 10:45:56;;;;;;;15.38;9.77;;;6.10;93.60;;;;;;5018630;28;20038;-70
2021/12/04 10:48:27;;;;;;;15.10;9.73;;;6.10;93.60;;;;;;5020885;28;20060;-69
2021/12/04 10:51:52;;;;;;;15.15;10.48;;;6.20;93.60;;;;;;5020896;28;20018;-69
2021/12/04 10:53:53;;;;;;;18.45;11.57;;;6.10;93.40;;;;;;5013377;28;20037;-71
2021/12/04 11:43:09;;;;;;;14.82;10.02;;;6.60;93.40;;;;;;5027814;28;20056;-72
2021/12/04 11:48:36;;;;;;;13.15;8.80;;;6.60;93.40;;;;;;5028156;28;20481;-69
2021/12/04 11:51:04;;;;;;;17.17;8.75;;;6.70;93.40;;;;;;5027471;28;20038;-72
2021/12/04 11:53:34;;;;;;;14.43;7.32;;;6.60;93.50;;;;;;5022532;28;20037;-68
2021/12/04 11:56:00;;;;;;;10.27;5.93;;;6.70;93.40;;;;;;5026872;28;20504;-69
2021/12/04 11:58:32;;;;;;;13.27;6.03;;;6.70;93.40;;;;;;5028583;28;20389;-69
2021/12/04 12:01:02;;;;;;;13.23;5.70;;;6.60;93.30;;;;;;5028879;28;20535;-68
2021/12/04 12:03:31;;;;;;;13.25;5.53;;;6.70;93.20;;;;;;5028748;28;20065;-69
2021/12/04 12:06:03;;;;;;;11.38;4.85;;;6.70;93.00;;;;;;5030881;28;20038;-69
2021/12/04 12:08:31;;;;;;;10.75;5.78;;;6.70;92.60;;;;;;5029344;28;20025;-70
2021/12/04 12:11:27;;;;;;;11.00;6.03;;;6.70;92.20;;;;;;5029156;28;20041;-69
2021/12/04 12:14:08;;;;;;;11.50;5.38;;;6.70;91.80;;;;;;5029444;28;20041;-68
2021/12/04 12:16:39;;;;;;;12.13;4.43;;;6.70;91.40;;;;;;5017024;28;20034;-70
2021/12/04 12:19:12;;;;;;;10.00;3.90;;;6.70;91.20;;;;;;5029975;28;20041;-69
2021/12/04 12:32:44;;;;;;;5.00;2.20;;;6.80;91.00;;;;;;4997456;28;20068;-70
2021/12/04 12:38:09;;;;;;;9.60;3.67;;;6.90;91.10;;;;;;5006670;28;20041;-70
2021/12/04 12:40:35;;;;;;;9.00;3.30;;;6.90;91.00;;;;;;5004090;28;20038;-69
2021/12/04 12:43:17;;;;;;;9.38;3.05;;;7.00;91.30;;;;;;5009323;28;20040;-69
2021/12/04 12:45:53;;;;;;;9.65;3.13;;;7.10;91.30;;;;;;5008736;28;20042;-69
2021/12/04 12:48:19;;;;;;;8.68;3.85;;;7.10;91.40;;;;;;4999341;28;20030;-70
2021/12/04 12:50:46;;;;;;;7.15;3.28;;;7.10;91.30;;;;;;5002816;28;20365;-69
2021/12/04 12:53:14;;;;;;;8.68;4.05;;;7.10;91.60;;;;;;5010217;28;20282;-69
2021/12/04 12:55:42;;;;;;;10.13;4.38;;;7.10;91.70;;;;;;5002950;28;20029;-69
2021/12/04 12:58:12;;;;;;;12.93;5.40;;;7.00;91.80;;;;;;5003017;28;20069;-70
2021/12/04 13:12:02;;;;;;;9.77;5.55;;;7.30;92.00;;;;;;5020001;28;20235;-70
2021/12/04 13:14:34;;;;;;;10.85;4.18;;;7.40;91.70;;;;;;5011548;28;20042;-73
2021/12/04 13:17:09;;;;;;;12.13;4.55;;;7.40;91.50;;;;;;5016473;28;20033;-71
2021/12/04 13:19:37;;;;;;;12.07;5.28;;;7.40;91.40;;;;;;5017602;28;20477;-71
2021/12/04 13:22:14;;;;;;;12.98;4.60;;;7.40;91.40;;;;;;5019776;28;20033;-69
2021/12/04 13:24:42;;;;;;;11.80;4.13;;;7.40;91.40;;;;;;5019753;28;20107;-69
2021/12/04 13:29:44;;;;;;;15.38;4.72;;;7.30;90.70;;;;;;5023157;28;20030;-69
2021/12/04 13:32:12;;;;;;;16.17;5.20;;;7.20;89.70;;;;;;5019798;28;20579;-71
2021/12/04 13:34:40;;;;;;;12.18;5.07;;;7.30;89.00;;;;;;5021019;28;20349;-69
2021/12/04 13:37:07;;;;;;;13.95;4.32;;;7.40;88.10;;;;;;5018395;28;20120;-71
2021/12/04 13:39:34;;;;;;;17.80;4.95;;;7.50;86.50;;;;;;5019441;28;20088;-70
2021/12/04 13:42:01;;;;;;;13.07;3.03;;;7.60;85.80;;;;;;5020427;28;20530;-72
2021/12/04 13:44:29;;;;;;;15.32;3.88;;;7.60;85.90;;;;;;5019778;28;20029;-70
2021/12/04 13:47:00;;;;;;;14.23;4.70;;;7.70;86.30;;;;;;5019077;28;20038;-70
2021/12/04 13:49:33;;;;;;;16.80;4.97;;;7.60;86.10;;;;;;5027625;28;20028;-70
2021/12/04 13:52:06;;;;;;;15.60;4.57;;;7.70;86.00;;;;;;5027504;28;20028;-72
2021/12/04 13:54:35;;;;;;;13.98;4.88;;;7.70;85.80;;;;;;5018482;28;20455;-69
2021/12/04 13:57:00;;;;;;;12.57;4.28;;;7.60;85.50;;;;;;5011913;28;20036;-70
2021/12/04 13:59:28;;;;;;;16.33;5.50;;;7.60;85.50;;;;;;5019806;28;20042;-71
2021/12/04 14:01:54;;;;;;;16.15;4.00;;;7.60;85.30;;;;;;5019324;28;20041;-69
2021/12/04 14:04:20;;;;;;;14.05;3.95;;;7.60;84.70;;;;;;5015761;28;20118;-69
2021/12/04 14:06:59;;;;;;;16.92;4.90;;;7.60;84.60;;;;;;5018664;28;20033;-69
2021/12/04 14:09:51;;;;;;;17.40;4.18;;;7.50;85.20;;;;;;5018570;28;20496;-71
2021/12/04 14:12:17;;;;;;;13.27;4.18;;;7.50;84.10;;;;;;5023605;28;20501;-70
2021/12/04 14:14:43;;;;;;;12.50;3.90;;;7.40;84.60;;;;;;5017196;28;20045;-69
2021/12/04 14:17:12;;;;;;;20.33;3.78;;;7.40;84.60;;;;;;5019507;28;20041;-73
2021/12/04 14:19:39;;;;;;;11.18;3.05;;;7.40;84.10;;;;;;5018279;28;20029;-70
2021/12/04 14:22:09;;;;;;;16.88;3.63;;;7.30;84.00;;;;;;5019571;28;20537;-70
2021/12/04 14:24:49;;;;;;;14.23;4.35;;;7.30;84.40;;;;;;5019751;28;20056;-71
2021/12/04 14:27:27;;;;;;;17.58;3.58;;;7.30;83.70;;;;;;5018158;28;20042;-72
2021/12/04 14:29:59;;;;;;;16.80;3.20;;;7.40;83.40;;;;;;5020200;28;20045;-69
2021/12/04 14:32:28;;;;;;;10.75;3.20;;;7.40;83.30;;;;;;5018381;28;20048;-71
2021/12/04 14:35:00;;;;;;;13.20;2.97;;;7.30;82.80;;;;;;5017854;28;20045;-71
2021/12/04 14:37:27;;;;;;;15.32;4.57;;;7.30;82.30;;;;;;5019167;28;20064;-70
2021/12/04 14:39:53;;;;;;;16.67;5.70;;;7.30;81.70;;;;;;5019508;28;20481;-71
2021/12/04 14:42:24;;;;;;;14.05;4.90;;;7.20;81.70;;;;;;5019592;28;20519;-69
2021/12/04 14:44:57;;;;;;;14.80;4.25;;;7.10;82.30;;;;;;5020019;28;20041;-68
2021/12/04 14:47:28;;;;;;;15.30;4.30;;;7.00;82.60;;;;;;5018449;28;20468;-69
2021/12/04 14:49:59;;;;;;;17.35;5.22;;;6.90;82.60;;;;;;5021170;28;20042;-71
2021/12/04 14:52:28;;;;;;;12.40;3.30;;;6.90;83.00;;;;;;5012875;28;20044;-71
2021/12/04 14:54:54;;;;;;;15.10;3.90;;;6.80;82.90;;;;;;5016816;28;20087;-71
2021/12/04 14:57:22;;;;;;;13.65;3.90;;;6.80;83.00;;;;;;5018339;28;20369;-71
2021/12/04 15:00:09;;;;;;;10.57;3.45;;;6.70;83.00;;;;;;5019676;28;20037;-72
2021/12/04 15:02:36;;;;;;;16.83;3.85;;;6.80;83.10;;;;;;5018959;28;20065;-73
2021/12/04 15:05:03;;;;;;;14.45;3.10;;;6.80;83.20;;;;;;5020382;28;20038;-70
2021/12/04 15:07:33;;;;;;;17.88;3.85;;;6.70;83.10;;;;;;5020298;28;20113;-72
2021/12/04 15:10:17;;;;;;;12.63;3.08;;;6.70;83.20;;;;;;5018496;28;20121;-70
2021/12/04 15:12:43;;;;;;;11.88;3.38;;;6.70;83.10;;;;;;5019459;28;20053;-70
2021/12/04 15:15:10;;;;;;;14.15;3.95;;;6.60;83.30;;;;;;5024366;28;20377;-70
2021/12/04 15:17:40;;;;;;;11.32;2.90;;;6.60;83.30;;;;;;5024917;28;20057;-71
2021/12/04 15:20:16;;;;;;;15.40;3.30;;;6.60;83.50;;;;;;5016520;28;20034;-71
2021/12/04 15:22:45;;;;;;;11.50;3.15;;;6.50;83.60;;;;;;5018823;28;20037;-69
2021/12/04 15:25:14;;;;;;;12.63;3.15;;;6.50;83.70;;;;;;5017500;28;20130;-69
2021/12/04 15:27:40;;;;;;;10.85;3.15;;;6.50;83.90;;;;;;5018677;28;20477;-69
2021/12/04 15:30:10;;;;;;;14.05;4.00;;;6.50;83.80;;;;;;5017300;28;20100;-72
2021/12/04 15:32:39;;;;;;;14.40;4.43;;;6.60;83.90;;;;;;5019771;28;20053;-70
2021/12/04 15:35:30;;;;;;;14.52;4.80;;;6.60;83.80;;;;;;5017375;28;20189;-69
2021/12/04 15:38:08;;;;;;;17.00;5.45;;;6.60;83.90;;;;;;5019357;28;20034;-68
2021/12/04 15:43:55;;;;;;;15.75;5.35;;;6.70;84.10;;;;;;4998657;28;20555;-73
2021/12/04 15:46:38;;;;;;;13.70;5.50;;;6.70;84.20;;;;;;5011578;28;20085;-70
2021/12/04 15:52:47;;;;;;;16.35;7.80;;;6.60;84.80;;;;;;5019111;28;20042;-70
2021/12/04 15:54:38;;;;;;;19.10;7.32;;;6.60;84.90;;;;;;5014548;28;21415;-71
2021/12/04 15:57:13;;;;;;;12.52;6.60;;;6.60;85.20;;;;;;5020074;28;20083;-69
2021/12/04 15:59:45;;;;;;;13.20;5.07;;;6.60;85.30;;;;;;5017222;28;20045;-70
2021/12/04 16:02:13;;;;;;;15.85;4.97;;;6.60;85.50;;;;;;5020863;28;20030;-71